Terminal Aerodrome Forecast
Issued by NWS Charleston, SC

Home | Current Version | Previous Version | Text Only | Print | Product List | Glossary On
Versions: 1 2 3 4 5 6 7 8 9 10 11 12 13 14
000
FTUS42 KCHS 011800 AAA
TAFCHS
TAF AMD
KCHS 011809Z 0118/0218 17010KT P6SM VCTS SCT035CB SCT250
      TEMPO 0118/0120 5SM -TSRA BR BKN030CB
     FM020100 21005KT P6SM FEW025 SCT200=

USA.gov is the U.S. government's official web portal to all federal, state and local government web resources and services.